Time;durP1;ratioP1;P1;durP2;ratioP2;P2;SDS_P1;SDS_P2;PMS_P1;PMS_P2;Temp;Humidity;BMP_temperature;BMP_pressure;BME280_temperature;BME280_humidity;BME280_pressure;Samples;Min_cycle;Max_cycle;Signal;HPM_P1;HPM_P2
2021/09/09 00:02:14;;;;;;;48.78;45.53;;;18.60;99.90;;;;;;5056687;28;20204;-78
2021/09/09 00:04:43;;;;;;;79.22;74.25;;;18.50;99.90;;;;;;5054789;28;20229;-78
2021/09/09 00:07:10;;;;;;;80.65;76.30;;;18.40;99.90;;;;;;5058738;28;20255;-79
2021/09/09 00:09:36;;;;;;;51.80;48.65;;;18.30;99.90;;;;;;5058100;28;20228;-79
2021/09/09 00:12:04;;;;;;;71.82;67.18;;;18.30;99.90;;;;;;5057635;28;20343;-79
2021/09/09 00:14:33;;;;;;;51.45;47.33;;;18.30;99.90;;;;;;5056023;28;20211;-78
2021/09/09 00:17:00;;;;;;;68.85;64.72;;;18.30;99.90;;;;;;5050661;28;20648;-79
2021/09/09 00:19:27;;;;;;;70.13;65.65;;;18.30;99.90;;;;;;5063326;28;20221;-78
2021/09/09 00:21:55;;;;;;;53.97;50.42;;;18.20;99.90;;;;;;5060137;28;20206;-79
2021/09/09 00:24:22;;;;;;;69.18;65.20;;;18.20;99.90;;;;;;5060330;28;20227;-79
2021/09/09 00:26:49;;;;;;;58.53;54.88;;;18.20;99.90;;;;;;5059292;28;20210;-79
2021/09/09 00:29:16;;;;;;;57.75;54.13;;;18.20;99.90;;;;;;5048709;28;20260;-78
2021/09/09 00:31:43;;;;;;;63.58;58.85;;;18.10;99.90;;;;;;5052319;28;20208;-79
2021/09/09 00:34:10;;;;;;;56.58;53.17;;;18.10;99.90;;;;;;5062797;28;20202;-79
2021/09/09 00:36:38;;;;;;;66.45;62.40;;;18.10;99.90;;;;;;5055521;28;20231;-79
2021/09/09 00:39:06;;;;;;;76.82;72.30;;;18.10;99.90;;;;;;5052766;28;20206;-79
2021/09/09 00:41:34;;;;;;;62.55;58.08;;;18.00;99.90;;;;;;5048977;28;20202;-79
2021/09/09 00:44:02;;;;;;;74.53;69.88;;;18.00;99.90;;;;;;5048550;28;20218;-79
2021/09/09 00:46:31;;;;;;;76.78;72.20;;;17.90;99.90;;;;;;5057337;28;20215;-79
2021/09/09 00:48:58;;;;;;;76.90;72.07;;;17.90;99.90;;;;;;5062894;28;20225;-79
2021/09/09 00:51:26;;;;;;;107.32;101.53;;;17.80;99.90;;;;;;5063143;28;20224;-79
2021/09/09 00:53:53;;;;;;;86.28;81.53;;;17.80;99.90;;;;;;5062389;28;20202;-79
2021/09/09 00:56:22;;;;;;;68.70;64.80;;;17.80;99.90;;;;;;5062792;28;20275;-78
2021/09/09 00:58:49;;;;;;;77.53;73.18;;;17.70;99.90;;;;;;5052794;28;20213;-79
2021/09/09 01:01:16;;;;;;;64.05;60.38;;;17.70;99.90;;;;;;5058470;28;20254;-79
2021/09/09 01:03:43;;;;;;;67.60;63.55;;;17.70;99.90;;;;;;5065587;28;20251;-78
2021/09/09 01:06:10;;;;;;;76.18;71.55;;;17.70;99.90;;;;;;5057363;28;20267;-79
2021/09/09 01:08:37;;;;;;;72.07;67.85;;;17.70;99.90;;;;;;5056737;28;20259;-79
2021/09/09 01:11:04;;;;;;;67.68;63.63;;;17.70;99.90;;;;;;5058060;28;20266;-79
2021/09/09 01:13:33;;;;;;;80.55;75.70;;;17.60;99.90;;;;;;5060337;28;20204;-79
2021/09/09 01:16:00;;;;;;;118.30;111.95;;;17.60;99.90;;;;;;5058146;28;20218;-78
2021/09/09 01:18:27;;;;;;;88.78;83.45;;;17.60;99.90;;;;;;5058763;28;20198;-79
2021/09/09 01:20:54;;;;;;;115.57;109.47;;;17.50;99.90;;;;;;5058182;28;20268;-76
2021/09/09 01:23:21;;;;;;;88.85;83.72;;;17.50;99.90;;;;;;5065506;28;20204;-77
2021/09/09 01:25:49;;;;;;;118.18;112.03;;;17.40;99.90;;;;;;5057895;28;20256;-79
2021/09/09 01:28:17;;;;;;;124.15;117.35;;;17.40;99.90;;;;;;5069504;28;20232;-78
2021/09/09 01:30:44;;;;;;;138.13;130.48;;;17.40;99.90;;;;;;5059323;28;20202;-78
2021/09/09 01:33:11;;;;;;;125.30;118.32;;;17.30;99.90;;;;;;5056998;28;20197;-78
2021/09/09 01:35:37;;;;;;;125.40;118.70;;;17.40;99.90;;;;;;5053102;28;20215;-78
2021/09/09 01:38:05;;;;;;;134.60;127.60;;;17.30;99.90;;;;;;5051546;28;20205;-78
2021/09/09 01:40:32;;;;;;;134.25;127.00;;;17.30;99.90;;;;;;5056379;28;20203;-78
2021/09/09 01:43:01;;;;;;;148.70;140.60;;;17.30;99.90;;;;;;5051971;28;20210;-78
2021/09/09 01:45:29;;;;;;;150.93;142.73;;;17.30;99.90;;;;;;5056018;28;20540;-78
2021/09/09 01:47:56;;;;;;;143.45;135.70;;;17.20;99.90;;;;;;5058089;28;20228;-78
2021/09/09 01:50:24;;;;;;;171.60;162.43;;;17.20;99.90;;;;;;5057139;28;20204;-78
2021/09/09 01:52:51;;;;;;;153.68;145.23;;;17.20;99.90;;;;;;5050801;28;20204;-78
2021/09/09 01:55:18;;;;;;;142.57;134.40;;;17.20;99.90;;;;;;5050519;28;20202;-78
2021/09/09 01:57:45;;;;;;;144.25;136.48;;;17.20;99.90;;;;;;5058219;28;20209;-78
2021/09/09 02:00:14;;;;;;;143.32;135.88;;;17.20;99.90;;;;;;5049128;28;20209;-78
2021/09/09 02:02:43;;;;;;;141.98;133.88;;;17.10;99.90;;;;;;5059635;28;20209;-79
2021/09/09 02:05:11;;;;;;;138.23;131.10;;;17.10;99.90;;;;;;5057962;28;20229;-78
2021/09/09 02:07:38;;;;;;;140.90;132.93;;;17.10;99.90;;;;;;5063529;28;20233;-78
2021/09/09 02:10:06;;;;;;;125.35;118.50;;;17.10;99.90;;;;;;5086202;28;20208;-78
2021/09/09 02:12:33;;;;;;;154.73;146.48;;;17.00;99.90;;;;;;5081113;28;20199;-78
2021/09/09 02:15:01;;;;;;;143.43;135.65;;;17.10;99.90;;;;;;5071239;28;20270;-78
2021/09/09 02:17:37;;;;;;;146.60;138.85;;;17.00;99.90;;;;;;5073361;28;20201;-78
2021/09/09 02:20:06;;;;;;;161.20;152.55;;;16.90;99.90;;;;;;5072826;28;20198;-79
2021/09/09 02:22:33;;;;;;;164.27;155.63;;;17.00;99.90;;;;;;5067867;28;20213;-79
2021/09/09 02:25:00;;;;;;;155.40;146.95;;;17.00;99.90;;;;;;5072948;28;20212;-78
2021/09/09 02:27:27;;;;;;;133.65;126.25;;;17.00;99.90;;;;;;5076092;28;20196;-79
2021/09/09 02:29:54;;;;;;;149.18;141.07;;;16.90;99.90;;;;;;5071099;28;20229;-78
2021/09/09 02:32:21;;;;;;;145.23;137.43;;;16.90;99.90;;;;;;5079019;28;20530;-78
2021/09/09 02:34:49;;;;;;;113.35;107.32;;;16.90;99.90;;;;;;5079612;28;20255;-78
2021/09/09 02:37:16;;;;;;;131.30;124.55;;;16.90;99.90;;;;;;5077080;28;20201;-78
2021/09/09 02:39:46;;;;;;;146.07;138.50;;;16.80;99.90;;;;;;5071449;28;20241;-78
2021/09/09 02:42:14;;;;;;;125.35;118.70;;;16.80;99.90;;;;;;5080514;28;20208;-78
2021/09/09 02:44:41;;;;;;;136.98;129.60;;;16.80;99.90;;;;;;5071946;28;20224;-78
2021/09/09 02:47:08;;;;;;;117.32;111.13;;;16.80;99.90;;;;;;5079500;28;20208;-78
2021/09/09 02:49:35;;;;;;;113.30;106.85;;;16.80;99.90;;;;;;5084952;28;20232;-78
2021/09/09 02:52:04;;;;;;;143.43;135.82;;;16.90;99.90;;;;;;5083006;28;20209;-78
2021/09/09 02:54:32;;;;;;;145.10;137.32;;;16.80;99.90;;;;;;5079757;28;20211;-77
2021/09/09 02:56:59;;;;;;;117.57;111.30;;;16.80;99.90;;;;;;5069266;28;20213;-78
2021/09/09 02:59:26;;;;;;;138.05;130.75;;;16.80;99.90;;;;;;5080443;28;20217;-78
2021/09/09 03:01:53;;;;;;;129.98;123.15;;;16.80;99.90;;;;;;5076133;28;20235;-78
2021/09/09 03:04:19;;;;;;;155.60;147.15;;;16.80;99.90;;;;;;5082197;28;20697;-78
2021/09/09 03:06:47;;;;;;;134.50;127.47;;;16.70;99.90;;;;;;5074323;28;20208;-78
2021/09/09 03:09:15;;;;;;;128.85;122.15;;;16.70;99.90;;;;;;5076190;28;20229;-78
2021/09/09 03:11:42;;;;;;;157.15;148.90;;;16.70;99.90;;;;;;5072765;28;20204;-78
2021/09/09 03:14:09;;;;;;;171.63;162.52;;;16.70;99.90;;;;;;5081156;28;20702;-78
2021/09/09 03:16:36;;;;;;;153.85;145.75;;;16.70;99.90;;;;;;5077590;28;20201;-78
2021/09/09 03:19:03;;;;;;;212.23;200.52;;;16.70;99.90;;;;;;5073236;28;20234;-78
2021/09/09 03:21:31;;;;;;;161.25;152.70;;;16.70;99.90;;;;;;5075558;28;20200;-78
2021/09/09 03:23:57;;;;;;;178.98;169.27;;;16.70;99.90;;;;;;5070163;28;20205;-78
2021/09/09 03:26:26;;;;;;;182.52;172.32;;;16.70;99.90;;;;;;5083109;28;20211;-79
2021/09/09 03:28:53;;;;;;;240.15;226.93;;;16.70;99.90;;;;;;5076927;28;20233;-79
2021/09/09 03:31:20;;;;;;;206.35;195.18;;;16.70;99.90;;;;;;5080659;28;20204;-79
2021/09/09 03:33:48;;;;;;;137.00;129.77;;;16.70;99.90;;;;;;5083929;28;20207;-79
2021/09/09 03:36:14;;;;;;;197.15;186.27;;;16.60;99.90;;;;;;5072096;28;20201;-78
2021/09/09 03:38:42;;;;;;;134.35;127.22;;;16.60;99.90;;;;;;5081590;28;20207;-78
2021/09/09 03:41:09;;;;;;;176.25;166.75;;;16.60;99.90;;;;;;5068437;28;20213;-78
2021/09/09 03:43:38;;;;;;;223.02;211.02;;;16.60;99.90;;;;;;5073453;28;20240;-78
2021/09/09 03:46:05;;;;;;;206.80;195.60;;;16.60;99.90;;;;;;5041782;28;20247;-78
2021/09/09 03:48:32;;;;;;;236.43;222.90;;;16.60;99.90;;;;;;5086346;28;20260;-78
2021/09/09 03:50:59;;;;;;;227.43;214.13;;;16.60;99.90;;;;;;5081414;28;20244;-79
2021/09/09 03:53:26;;;;;;;251.32;236.73;;;16.60;99.90;;;;;;5084860;28;20197;-78
2021/09/09 03:55:53;;;;;;;225.05;212.65;;;16.60;99.90;;;;;;5086652;28;20242;-80
2021/09/09 03:58:20;;;;;;;232.40;219.52;;;16.60;99.90;;;;;;5084361;28;20200;-79
2021/09/09 04:00:49;;;;;;;262.77;247.35;;;16.60;99.90;;;;;;5069051;28;20212;-77
2021/09/09 04:03:16;;;;;;;180.50;170.52;;;16.60;99.90;;;;;;5075835;28;20281;-76
2021/09/09 04:05:43;;;;;;;242.80;228.88;;;16.60;99.90;;;;;;5077380;28;20201;-77
2021/09/09 04:08:10;;;;;;;209.35;197.82;;;16.60;99.90;;;;;;5081719;28;20238;-76
2021/09/09 04:10:37;;;;;;;171.73;162.57;;;16.60;99.90;;;;;;5084078;28;20197;-77
2021/09/09 04:13:04;;;;;;;301.60;283.85;;;16.50;99.90;;;;;;5078308;28;20264;-77
2021/09/09 04:15:32;;;;;;;348.70;326.88;;;16.60;99.90;;;;;;5066197;28;20236;-77
2021/09/09 04:18:00;;;;;;;571.53;531.47;;;16.50;99.90;;;;;;5068184;28;20208;-77
2021/09/09 04:20:27;;;;;;;541.60;504.00;;;16.50;99.90;;;;;;5079455;28;20659;-77
2021/09/09 04:22:54;;;;;;;612.60;569.10;;;16.50;99.90;;;;;;5075438;28;20228;-77
2021/09/09 04:25:21;;;;;;;568.00;528.35;;;16.40;99.90;;;;;;5074357;28;20224;-77
2021/09/09 04:27:48;;;;;;;569.10;528.72;;;16.40;99.90;;;;;;5073932;28;20212;-76
2021/09/09 04:30:15;;;;;;;608.80;565.42;;;16.40;99.90;;;;;;5066343;28;20234;-76
2021/09/09 04:32:42;;;;;;;592.20;550.22;;;16.40;99.90;;;;;;5078299;28;20208;-77
2021/09/09 04:35:13;;;;;;;525.00;488.35;;;16.30;99.90;;;;;;5068520;28;20208;-76
2021/09/09 04:37:40;;;;;;;582.75;541.20;;;16.30;99.90;;;;;;5081076;28;20665;-76
2021/09/09 04:40:08;;;;;;;528.28;490.92;;;16.30;99.90;;;;;;5066233;28;20205;-76
2021/09/09 04:42:35;;;;;;;511.77;476.25;;;16.30;99.90;;;;;;5077692;28;20203;-77
2021/09/09 04:45:02;;;;;;;532.63;494.83;;;16.30;99.90;;;;;;5075754;28;20203;-77
2021/09/09 04:47:29;;;;;;;466.90;434.80;;;16.30;99.90;;;;;;5067518;28;20257;-76
2021/09/09 04:49:56;;;;;;;493.42;458.95;;;16.30;99.90;;;;;;5080050;28;20255;-76
2021/09/09 04:52:24;;;;;;;451.67;420.92;;;16.30;99.90;;;;;;5082609;28;20204;-76
2021/09/09 04:54:51;;;;;;;437.73;408.05;;;16.20;99.90;;;;;;5072842;28;20269;-76
2021/09/09 04:57:18;;;;;;;452.98;422.98;;;16.20;99.90;;;;;;5077084;28;20234;-76
2021/09/09 04:59:45;;;;;;;622.47;578.03;;;16.30;99.90;;;;;;5067925;28;20232;-76
2021/09/09 05:02:12;;;;;;;529.22;490.95;;;16.30;99.90;;;;;;5076047;28;20463;-77
2021/09/09 05:04:39;;;;;;;368.15;344.40;;;16.30;99.90;;;;;;5068655;28;20630;-77
2021/09/09 05:07:06;;;;;;;409.70;382.52;;;16.30;99.90;;;;;;5071115;28;20228;-76
2021/09/09 05:09:35;;;;;;;340.20;318.02;;;16.30;99.90;;;;;;5068627;28;21370;-77
2021/09/09 05:12:02;;;;;;;149.90;142.13;;;16.30;99.90;;;;;;5078277;28;20222;-76
2021/09/09 05:14:28;;;;;;;171.90;162.65;;;16.20;99.90;;;;;;5077939;28;20197;-77
2021/09/09 05:16:55;;;;;;;171.23;161.38;;;16.20;99.90;;;;;;5065351;28;20204;-76
2021/09/09 05:19:22;;;;;;;154.02;145.73;;;16.20;99.90;;;;;;5076417;28;20666;-77
2021/09/09 05:21:49;;;;;;;124.63;117.75;;;16.20;99.90;;;;;;5071480;28;20208;-76
2021/09/09 05:24:16;;;;;;;171.40;162.18;;;16.20;99.90;;;;;;5078123;28;20197;-77
2021/09/09 05:26:44;;;;;;;135.68;128.38;;;16.10;99.90;;;;;;5071170;28;20235;-77
2021/09/09 05:29:11;;;;;;;163.88;155.13;;;16.20;99.90;;;;;;5076366;28;20255;-77
2021/09/09 05:31:38;;;;;;;154.13;144.68;;;16.20;99.90;;;;;;5067988;28;20212;-76
2021/09/09 05:34:05;;;;;;;153.63;145.32;;;16.20;99.90;;;;;;5069784;28;20205;-76
2021/09/09 05:36:32;;;;;;;128.27;121.60;;;16.20;99.90;;;;;;5067015;28;20205;-76
2021/09/09 05:38:59;;;;;;;140.80;133.20;;;16.30;99.90;;;;;;5076845;28;20203;-76
2021/09/09 05:41:26;;;;;;;122.13;115.78;;;16.30;99.90;;;;;;5076770;28;20254;-76
2021/09/09 05:43:54;;;;;;;160.25;151.50;;;16.20;99.90;;;;;;5079596;28;20247;-76
2021/09/09 05:46:21;;;;;;;146.77;138.60;;;16.20;99.90;;;;;;5071415;28;20255;-76
2021/09/09 05:48:48;;;;;;;173.23;163.35;;;16.20;99.90;;;;;;5075912;28;20226;-76
2021/09/09 05:51:15;;;;;;;171.20;162.18;;;16.20;99.90;;;;;;5052323;28;20256;-76
2021/09/09 05:53:42;;;;;;;155.43;147.05;;;16.30;99.90;;;;;;5078029;28;20263;-77
2021/09/09 05:56:09;;;;;;;153.85;145.10;;;16.40;99.90;;;;;;5072118;28;20222;-76
2021/09/09 05:58:38;;;;;;;165.95;157.00;;;16.40;99.90;;;;;;5070793;28;20202;-76
2021/09/09 06:01:06;;;;;;;174.85;165.38;;;16.40;99.90;;;;;;5074935;28;20232;-76
2021/09/09 06:03:35;;;;;;;176.45;166.65;;;16.40;99.90;;;;;;5072131;28;20233;-76
2021/09/09 06:06:04;;;;;;;175.02;165.18;;;16.40;99.90;;;;;;5070948;28;20204;-77
2021/09/09 06:08:32;;;;;;;186.00;175.63;;;16.50;99.90;;;;;;5076870;28;20261;-76
2021/09/09 06:10:59;;;;;;;321.08;301.15;;;16.50;99.90;;;;;;5070989;28;20203;-76
2021/09/09 06:13:26;;;;;;;503.83;469.23;;;16.50;99.90;;;;;;5070290;28;20258;-76
2021/09/09 06:15:53;;;;;;;521.00;484.08;;;16.70;99.90;;;;;;5086477;28;20210;-78
2021/09/09 06:18:21;;;;;;;462.67;431.45;;;16.70;99.90;;;;;;5071675;28;20204;-76
2021/09/09 06:20:49;;;;;;;373.20;348.90;;;16.70;99.90;;;;;;5074005;28;20203;-76
2021/09/09 06:23:16;;;;;;;496.77;462.33;;;16.60;99.90;;;;;;5079284;28;20203;-76
2021/09/09 06:25:43;;;;;;;215.68;203.80;;;16.70;99.90;;;;;;5084792;28;20245;-76
2021/09/09 06:28:10;;;;;;;352.10;329.45;;;16.80;99.90;;;;;;5077487;28;20223;-77
2021/09/09 06:30:37;;;;;;;459.27;427.55;;;16.80;99.90;;;;;;5074684;28;20362;-76
2021/09/09 06:33:04;;;;;;;191.38;180.95;;;16.80;99.90;;;;;;5073779;28;20262;-75
2021/09/09 06:35:33;;;;;;;185.38;175.02;;;16.90;99.90;;;;;;5080480;28;20306;-76
2021/09/09 06:38:00;;;;;;;307.10;288.45;;;17.00;99.90;;;;;;5078009;28;20204;-76
2021/09/09 06:40:28;;;;;;;528.88;491.52;;;17.00;99.90;;;;;;5070965;28;20223;-76
2021/09/09 06:42:55;;;;;;;156.13;147.63;;;17.10;99.90;;;;;;5061367;28;20302;-75
2021/09/09 06:45:22;;;;;;;151.85;143.10;;;17.20;99.90;;;;;;5069301;28;20208;-76
2021/09/09 06:47:48;;;;;;;120.93;113.80;;;17.20;99.90;;;;;;5077345;28;20211;-76
2021/09/09 06:50:15;;;;;;;118.00;111.28;;;17.30;99.90;;;;;;5075212;28;20232;-76
2021/09/09 06:52:44;;;;;;;163.05;154.20;;;17.40;99.90;;;;;;5074163;28;20589;-76
2021/09/09 06:55:11;;;;;;;129.77;122.00;;;17.50;99.90;;;;;;5068125;28;20223;-76
2021/09/09 06:57:38;;;;;;;109.22;103.07;;;17.60;99.90;;;;;;5074752;28;20209;-76
2021/09/09 07:00:06;;;;;;;95.93;90.47;;;17.70;99.90;;;;;;5074181;28;20251;-75
2021/09/09 07:02:33;;;;;;;127.63;120.82;;;17.80;99.90;;;;;;5072277;28;20282;-76
2021/09/09 07:05:00;;;;;;;130.50;123.28;;;17.90;99.90;;;;;;5069304;28;20262;-76
2021/09/09 07:07:27;;;;;;;132.98;125.70;;;18.00;99.90;;;;;;5068626;28;20234;-75
2021/09/09 07:09:55;;;;;;;57.20;53.25;;;18.10;99.90;;;;;;5076379;28;20482;-76
2021/09/09 07:12:22;;;;;;;404.05;376.55;;;18.20;99.90;;;;;;5070919;28;20202;-76
2021/09/09 07:14:49;;;;;;;422.77;393.35;;;18.30;99.90;;;;;;5070951;28;20205;-75
2021/09/09 07:17:16;;;;;;;325.75;304.52;;;18.30;99.90;;;;;;5063351;28;20217;-75
2021/09/09 07:19:43;;;;;;;570.15;528.22;;;18.50;99.90;;;;;;5078057;28;20208;-76
2021/09/09 07:22:10;;;;;;;156.57;146.57;;;18.80;99.90;;;;;;5072825;28;20197;-75
2021/09/09 07:24:37;;;;;;;82.50;77.75;;;19.20;99.90;;;;;;5077314;28;20205;-75
2021/09/09 07:27:05;;;;;;;94.20;88.90;;;19.70;99.90;;;;;;5076532;28;20210;-76
2021/09/09 07:29:32;;;;;;;66.82;62.70;;;20.20;99.90;;;;;;5083270;28;20256;-76
2021/09/09 07:31:59;;;;;;;37.30;34.50;;;20.70;99.90;;;;;;5072546;28;20204;-76
2021/09/09 07:34:26;;;;;;;53.97;50.05;;;21.20;99.90;;;;;;5075330;28;20203;-76
2021/09/09 07:36:53;;;;;;;29.63;27.05;;;21.60;99.90;;;;;;5071722;28;20200;-76
2021/09/09 07:39:20;;;;;;;29.83;26.70;;;22.20;99.90;;;;;;5078053;28;20269;-76
2021/09/09 07:41:47;;;;;;;29.25;26.55;;;22.60;99.90;;;;;;5071421;28;20724;-76
2021/09/09 07:44:16;;;;;;;24.15;22.05;;;23.00;99.90;;;;;;5068431;28;20234;-76
2021/09/09 07:46:43;;;;;;;19.15;17.20;;;23.40;99.90;;;;;;5069537;28;20210;-76
2021/09/09 07:49:11;;;;;;;14.48;13.00;;;23.80;99.90;;;;;;5074994;28;20226;-76
2021/09/09 07:51:38;;;;;;;18.90;10.40;;;24.10;99.90;;;;;;5079411;28;20261;-75
2021/09/09 07:54:05;;;;;;;13.35;9.40;;;24.50;99.90;;;;;;5067794;28;20585;-76
2021/09/09 07:56:32;;;;;;;13.27;9.18;;;24.70;99.90;;;;;;5071826;28;20201;-76
2021/09/09 07:58:59;;;;;;;9.50;8.20;;;24.90;99.90;;;;;;5072925;28;20464;-76
2021/09/09 08:01:28;;;;;;;8.20;6.85;;;25.00;99.90;;;;;;5080103;28;20208;-76
2021/09/09 08:03:54;;;;;;;16.67;8.05;;;25.20;99.90;;;;;;5075005;28;20243;-76
2021/09/09 08:06:21;;;;;;;9.60;7.10;;;25.60;99.90;;;;;;5080082;28;20202;-76
2021/09/09 08:08:48;;;;;;;10.20;7.68;;;25.80;99.90;;;;;;5077434;28;20742;-76
2021/09/09 08:11:15;;;;;;;9.40;7.25;;;25.90;99.90;;;;;;5071466;28;20309;-76
2021/09/09 08:13:42;;;;;;;11.50;7.28;;;26.10;99.90;;;;;;5074034;28;20235;-76
2021/09/09 08:16:09;;;;;;;8.38;6.72;;;26.30;99.90;;;;;;5051549;28;20205;-76
2021/09/09 08:18:37;;;;;;;12.93;7.77;;;26.70;99.90;;;;;;5080952;28;20481;-76
2021/09/09 08:21:04;;;;;;;15.55;6.10;;;26.80;99.90;;;;;;5076938;28;20519;-76
2021/09/09 08:23:32;;;;;;;11.80;7.43;;;27.10;99.90;;;;;;5080505;28;20210;-76
2021/09/09 08:25:59;;;;;;;9.45;6.68;;;27.40;99.90;;;;;;5075802;28;20233;-76
2021/09/09 08:28:26;;;;;;;12.88;7.22;;;27.80;99.90;;;;;;5076940;28;20645;-77
2021/09/09 08:30:53;;;;;;;7.95;6.88;;;28.00;99.90;;;;;;5074140;28;20226;-76
2021/09/09 08:33:20;;;;;;;10.77;7.15;;;28.10;99.90;;;;;;5075753;28;20699;-76
2021/09/09 08:35:48;;;;;;;9.77;7.43;;;28.30;99.90;;;;;;5073387;28;20264;-76
2021/09/09 08:38:15;;;;;;;10.57;7.60;;;28.50;99.90;;;;;;5066823;28;20199;-76
2021/09/09 08:40:42;;;;;;;10.05;6.93;;;28.60;99.90;;;;;;5081676;28;20650;-76
2021/09/09 08:43:09;;;;;;;10.48;6.47;;;28.80;99.90;;;;;;5067844;28;20231;-76
2021/09/09 08:45:36;;;;;;;9.93;6.93;;;29.10;99.90;;;;;;5076217;28;20286;-76
2021/09/09 08:48:05;;;;;;;10.98;7.88;;;29.40;99.90;;;;;;5067892;28;20213;-76
2021/09/09 08:50:33;;;;;;;10.70;7.30;;;29.70;99.90;;;;;;5080696;28;20225;-76
2021/09/09 08:53:03;;;;;;;9.93;6.75;;;29.70;99.90;;;;;;5065678;28;20201;-76
2021/09/09 08:55:30;;;;;;;13.27;7.00;;;29.70;99.90;;;;;;5073081;28;20232;-76
2021/09/09 08:57:59;;;;;;;7.82;6.90;;;29.70;99.90;;;;;;5073864;28;20720;-76
2021/09/09 09:00:26;;;;;;;8.18;6.38;;;29.90;99.90;;;;;;5076482;28;20290;-76
2021/09/09 09:02:55;;;;;;;12.85;7.40;;;30.10;99.90;;;;;;5073865;28;20243;-76
2021/09/09 09:05:23;;;;;;;9.20;6.50;;;29.90;99.90;;;;;;5066380;28;20708;-76
2021/09/09 09:07:57;;;;;;;10.82;6.10;;;30.10;99.90;;;;;;5077760;28;20204;-76
2021/09/09 09:10:26;;;;;;;6.88;6.07;;;30.40;99.90;;;;;;5073447;28;20288;-76
2021/09/09 09:12:53;;;;;;;13.85;7.20;;;30.60;99.90;;;;;;5075019;28;20219;-76
2021/09/09 09:15:23;;;;;;;12.32;7.03;;;30.60;99.90;;;;;;5071357;28;20205;-76
2021/09/09 09:17:58;;;;;;;12.77;6.53;;;30.40;99.90;;;;;;5077961;28;20204;-76
2021/09/09 09:20:26;;;;;;;10.27;6.65;;;30.40;99.90;;;;;;5076516;28;20275;-76
2021/09/09 09:22:54;;;;;;;11.63;8.15;;;30.50;99.90;;;;;;5077098;28;20209;-76
2021/09/09 09:25:50;;;;;;;13.18;7.85;;;30.50;99.90;;;;;;5074801;28;20228;-76
2021/09/09 09:28:37;;;;;;;11.65;6.95;;;30.40;99.90;;;;;;5070563;28;20201;-76
2021/09/09 09:31:06;;;;;;;10.75;6.65;;;30.50;99.90;;;;;;5067960;28;20259;-76
2021/09/09 09:33:36;;;;;;;9.23;6.70;;;30.60;99.90;;;;;;5067644;28;20206;-76
2021/09/09 09:36:20;;;;;;;22.58;7.85;;;31.10;99.90;;;;;;5065290;28;20205;-76
2021/09/09 09:38:49;;;;;;;11.13;7.47;;;31.50;99.90;;;;;;5066045;28;20204;-76
2021/09/09 09:41:19;;;;;;;9.10;7.25;;;32.00;99.90;;;;;;5072569;28;20197;-76
2021/09/09 09:43:55;;;;;;;8.45;6.63;;;32.10;99.90;;;;;;5082282;28;20200;-76
2021/09/09 09:46:27;;;;;;;13.52;6.80;;;32.00;99.90;;;;;;5071136;28;20204;-76
2021/09/09 09:48:54;;;;;;;15.65;7.03;;;31.90;99.90;;;;;;5078528;28;20208;-76
2021/09/09 09:51:41;;;;;;;8.90;7.18;;;32.00;99.90;;;;;;5067168;28;20225;-76
2021/09/09 09:54:12;;;;;;;11.60;6.60;;;32.10;99.90;;;;;;5068646;28;20196;-77
2021/09/09 09:56:41;;;;;;;14.52;7.22;;;32.10;99.90;;;;;;5068816;28;20205;-76
2021/09/09 09:59:09;;;;;;;8.95;7.45;;;32.30;99.90;;;;;;5069444;28;20205;-76
2021/09/09 10:05:15;;;;;;;9.30;6.65;;;32.50;99.90;;;;;;5099215;27;20567;-76
2021/09/09 10:07:42;;;;;;;9.88;8.00;;;32.60;99.90;;;;;;5091376;28;20209;-76
2021/09/09 10:10:09;;;;;;;15.95;7.15;;;32.50;99.90;;;;;;5089397;28;20207;-76
2021/09/09 10:12:37;;;;;;;12.77;7.45;;;32.10;99.90;;;;;;5098443;28;20243;-76
2021/09/09 10:15:07;;;;;;;12.80;7.25;;;32.00;99.90;;;;;;5089760;28;20205;-76
2021/09/09 10:17:34;;;;;;;11.25;7.20;;;32.10;99.90;;;;;;5085369;28;20200;-76
2021/09/09 10:20:33;;;;;;;11.23;6.57;;;32.20;99.90;;;;;;5095650;28;20229;-77
2021/09/09 10:23:04;;;;;;;11.90;6.82;;;32.30;99.90;;;;;;5084229;28;20227;-76
2021/09/09 10:25:45;;;;;;;10.30;7.35;;;32.40;99.90;;;;;;5085210;28;20229;-76
2021/09/09 10:28:42;;;;;;;9.48;6.53;;;32.50;99.90;;;;;;5085303;28;20236;-76
2021/09/09 10:31:11;;;;;;;14.75;6.30;;;32.40;99.90;;;;;;5103436;28;20210;-77
2021/09/09 10:33:43;;;;;;;9.73;7.25;;;32.50;99.90;;;;;;5096878;28;20201;-76
2021/09/09 10:36:38;;;;;;;10.98;8.02;;;32.70;99.90;;;;;;5091715;28;20267;-76
2021/09/09 10:39:08;;;;;;;9.07;7.32;;;32.70;99.90;;;;;;5084257;28;20228;-76
2021/09/09 10:41:35;;;;;;;13.77;7.88;;;32.60;99.90;;;;;;5095818;28;20206;-76
2021/09/09 10:44:04;;;;;;;12.65;7.60;;;32.20;99.90;;;;;;5087047;28;20256;-76
2021/09/09 10:46:33;;;;;;;15.40;7.50;;;32.10;99.90;;;;;;5098021;28;20229;-76
2021/09/09 10:49:25;;;;;;;11.85;7.93;;;32.40;99.90;;;;;;5095782;28;20210;-76
2021/09/09 10:52:10;;;;;;;10.45;8.23;;;32.40;99.90;;;;;;5101255;28;20253;-76
2021/09/09 10:55:07;;;;;;;9.65;8.00;;;32.10;99.90;;;;;;5084398;28;20270;-76
2021/09/09 10:57:34;;;;;;;9.30;7.15;;;32.00;99.90;;;;;;5090727;28;20728;-76
2021/09/09 11:00:04;;;;;;;10.77;8.48;;;31.90;99.90;;;;;;5095672;28;20209;-76
2021/09/09 11:02:32;;;;;;;13.38;8.02;;;31.80;99.90;;;;;;5084007;28;20203;-76
2021/09/09 11:05:03;;;;;;;15.35;8.75;;;31.60;99.90;;;;;;5087619;28;20306;-76
2021/09/09 11:07:32;;;;;;;10.18;7.38;;;31.60;99.90;;;;;;5093338;28;20204;-76
2021/09/09 11:10:05;;;;;;;13.80;8.20;;;31.20;99.90;;;;;;5086854;28;20205;-76
2021/09/09 11:12:36;;;;;;;12.30;7.97;;;31.00;99.90;;;;;;5094811;28;20204;-76
2021/09/09 11:15:05;;;;;;;12.80;7.03;;;30.90;99.90;;;;;;5089143;28;20227;-76
2021/09/09 11:17:32;;;;;;;19.02;8.25;;;30.50;99.90;;;;;;5082086;28;20214;-76
2021/09/09 11:20:05;;;;;;;12.27;7.70;;;30.10;99.90;;;;;;5074772;28;20229;-76
2021/09/09 11:22:32;;;;;;;15.85;6.88;;;29.70;99.90;;;;;;5073803;28;20206;-76
2021/09/09 11:24:59;;;;;;;8.30;6.95;;;29.40;99.90;;;;;;5077728;28;20325;-76
2021/09/09 11:27:33;;;;;;;11.27;8.15;;;29.30;99.90;;;;;;5069604;28;20198;-76
2021/09/09 11:30:02;;;;;;;16.38;8.60;;;29.20;99.90;;;;;;5070314;28;20244;-76
2021/09/09 11:32:30;;;;;;;25.58;9.43;;;29.00;99.90;;;;;;5069555;28;20197;-76
2021/09/09 11:35:06;;;;;;;24.45;9.25;;;28.90;99.90;;;;;;5076956;28;20212;-76
2021/09/09 11:37:44;;;;;;;16.08;12.10;;;28.70;99.90;;;;;;5088945;28;20264;-75
2021/09/09 11:40:12;;;;;;;12.50;11.25;;;28.50;99.90;;;;;;5077722;28;20263;-76
2021/09/09 11:42:40;;;;;;;13.77;12.50;;;28.60;99.90;;;;;;5073344;28;20288;-76
2021/09/09 11:45:08;;;;;;;13.75;9.38;;;28.70;99.90;;;;;;5070264;28;20618;-76
2021/09/09 11:47:35;;;;;;;14.30;10.93;;;28.70;99.90;;;;;;5084907;28;20203;-76
2021/09/09 11:50:03;;;;;;;18.60;11.18;;;28.70;99.90;;;;;;5076810;28;20204;-76
2021/09/09 11:52:31;;;;;;;14.68;9.55;;;28.70;99.90;;;;;;5072948;28;20726;-77
2021/09/09 11:54:58;;;;;;;12.68;9.73;;;28.70;99.90;;;;;;5079031;28;20732;-76
2021/09/09 11:57:25;;;;;;;19.70;11.57;;;28.70;99.90;;;;;;5080658;28;20231;-76
2021/09/09 11:59:55;;;;;;;16.75;13.57;;;28.80;99.90;;;;;;5091645;28;20210;-76
2021/09/09 12:02:25;;;;;;;17.20;10.65;;;28.80;99.90;;;;;;5075372;28;20199;-76
2021/09/09 12:04:53;;;;;;;18.70;11.90;;;28.80;99.90;;;;;;5085030;28;20253;-75
2021/09/09 12:07:21;;;;;;;17.88;12.35;;;28.70;99.90;;;;;;5075924;28;20205;-76
2021/09/09 12:09:56;;;;;;;14.45;12.68;;;28.80;99.90;;;;;;5075714;28;20288;-76
2021/09/09 12:12:23;;;;;;;19.27;10.65;;;28.70;99.90;;;;;;5073603;28;20210;-76
2021/09/09 12:15:00;;;;;;;13.55;11.65;;;28.70;99.90;;;;;;5082077;28;20196;-76
2021/09/09 12:17:27;;;;;;;13.90;10.43;;;28.70;99.90;;;;;;5068796;28;20268;-76
2021/09/09 12:20:00;;;;;;;17.38;11.43;;;28.80;99.90;;;;;;5084169;28;20823;-76
2021/09/09 12:22:43;;;;;;;16.45;10.45;;;28.80;99.90;;;;;;5076858;28;20193;-76
2021/09/09 12:25:25;;;;;;;20.13;12.02;;;28.80;99.90;;;;;;5081459;28;20262;-76
2021/09/09 12:28:01;;;;;;;25.95;11.20;;;28.80;99.90;;;;;;5074391;28;20197;-76
2021/09/09 12:30:31;;;;;;;13.52;9.48;;;28.80;99.90;;;;;;5071973;28;20206;-76
2021/09/09 12:32:58;;;;;;;12.88;9.40;;;28.90;99.90;;;;;;5076164;28;20526;-76